• Join FlightAware (Why Join?)
  • Login
  • US Flag 
02:32AM EDT


 

Airport Tracker/Info


-or-


 

Live Flight TrackerFlight Track Log ✈ N7824C ✈ 24-Apr-2013 ✈ KTDF - KSUT

Flight Track Log - Related Links

Times and Time Zones

All times are in EDT time to prevent confusion due to time zone crossing. See the N7824C flight status page for this flight to view local times or setup timezone preferences in your user account.

Time Position Orientation Groundspeed Altitude Reporting Facility
EDT Latitude Longitude Course Direction KTS MPH feet Rate Location/Type
12:53PM 36.2500 -78.9842 156° South 95 109 1,900  Level Washington Center
12:54PM 36.2192 -78.9672 156° South 103 119 2,800 660 Climbing Washington Center
12:55PM 36.1922 -78.9558 161° South 107 123 3,400 540 Climbing Washington Center
12:56PM 36.1656 -78.9367 150° Southeast 112 129 3,900 480 Climbing Washington Center
12:57PM 36.1369 -78.9225 158° South 111 128 4,400 480 Climbing Washington Center
12:58PM 36.1081 -78.9086 159° South 112 129 4,900 480 Climbing Washington Center
12:59PM 36.0792 -78.8919 155° Southeast 111 128 5,400 420 Climbing Washington Center
01:00PM 36.0544 -78.8806 160° South 112 129 5,800 480 Climbing Washington Center
01:01PM 36.0278 -78.8667 157° South 110 127 6,300 420 Climbing Washington Center
01:02PM 35.9989 -78.8553 162° South 108 124 6,700 180 Climbing Washington Center
01:04PM 35.9487 -78.8279 156° South  Level FlightAware Approximate
01:04PM 35.9353 -78.8217 156° South 129 148 7,000  Level Washington Center
01:05PM 35.8981 -78.8022 157° South 130 150 7,000  Level Washington Center
01:06PM 35.8672 -78.7856 156° South 130 150 7,000  Level Washington Center
01:07PM 35.8239 -78.7686 162° South 133 153 7,000  Level Washington Center
01:08PM 35.7844 -78.7567 166° South 132 152 7,000  Level Washington Center
01:09PM 35.7475 -78.7425 163° South 135 155 7,000  Level Washington Center
01:10PM 35.7103 -78.7256 160° South 137 158 7,000  Level Washington Center
01:13PM 35.6353 -78.6971 163° South  Level FlightAware Approximate
01:20PM 35.3792 -78.6010 163° South  Level FlightAware Approximate
01:21PM 35.3426 -78.5875 163° South  Level FlightAware Approximate
01:22PM 35.3059 -78.5740 163° South  Level FlightAware Approximate
01:23PM 35.2693 -78.5605 163° South  Level FlightAware Approximate
01:24PM 35.2327 -78.5470 163° South  Level FlightAware Approximate
01:25PM 35.1960 -78.5336 163° South  Level FlightAware Approximate
01:26PM 35.1594 -78.5201 163° South  Level FlightAware Approximate
01:27PM 35.1229 -78.5061 162° South  Level FlightAware Approximate
01:28PM 35.0864 -78.4919 162° South  Level FlightAware Approximate
01:29PM 35.0500 -78.4777 162° South  Level FlightAware Approximate
01:30PM 35.0135 -78.4635 162° South  Level FlightAware Approximate
01:31PM 34.9771 -78.4493 162° South  Level FlightAware Approximate
01:32PM 34.9406 -78.4352 162° South  Level FlightAware Approximate
01:33PM 34.9042 -78.4210 162° South  Level FlightAware Approximate
01:34PM 34.8677 -78.4069 162° South  Level FlightAware Approximate
01:35PM 34.8311 -78.3934 164° South  Level FlightAware Approximate
01:36PM 34.7943 -78.3807 164° South  Level FlightAware Approximate
01:37PM 34.7575 -78.3680 164° South  Level FlightAware Approximate
01:38PM 34.7207 -78.3553 164° South  Level FlightAware Approximate
01:39PM 34.6839 -78.3426 164° South  Level FlightAware Approximate
01:40PM 34.6470 -78.3299 164° South  Level FlightAware Approximate
01:41PM 34.6102 -78.3173 164° South  Level FlightAware Approximate
01:42PM 34.5734 -78.3046 164° South  Level FlightAware Approximate
01:43PM 34.5366 -78.2920 164° South  Level FlightAware Approximate
01:44PM 34.4998 -78.2794 164° South  Level FlightAware Approximate
01:45PM 34.4630 -78.2667 164° South  Level FlightAware Approximate
01:46PM 34.4262 -78.2541 164° South  Level FlightAware Approximate
01:47PM 34.3894 -78.2415 164° South  Level FlightAware Approximate
01:48PM 34.3525 -78.2289 164° South  Level FlightAware Approximate
01:49PM 34.3158 -78.2162 158° South  Level FlightAware Approximate
01:50PM 34.2804 -78.1985 158° South  Level FlightAware Approximate
01:51PM 34.2450 -78.1808 158° South  Level FlightAware Approximate
01:52PM 34.2097 -78.1632 158° South  Level FlightAware Approximate
01:53PM 34.1738 -78.1474 167° South  Level FlightAware Approximate
01:54PM 34.1365 -78.1372 167° South  Level FlightAware Approximate
01:55PM 34.0992 -78.1270 167° South  Level FlightAware Approximate
01:56PM 34.0619 -78.1169 167° South  Level FlightAware Approximate
01:57PM 34.0245 -78.1067 167° South  Level FlightAware Approximate
01:58PM 33.9876 -78.0950 162° South  Level FlightAware Approximate
01:59PM 33.9513 -78.0805 162° South  Level FlightAware Approximate
02:00PM 33.9308 -78.0734 162° South  Level Estimated
02:01PM 33.9308 -78.0734 162° South  Level Estimated
02:02PM 33.9308 -78.0734 162° South  Level Estimated
02:03PM 33.9308 -78.0734 162° South  Level Estimated
02:04PM 33.9308 -78.0734 162° South  Level Estimated